createdAt,value
2023-01-21T00:01:09.008Z,9.75
2023-01-21T00:03:36.828Z,9.73
2023-01-21T00:06:06.647Z,9.98
2023-01-21T00:08:34.420Z,12.00
2023-01-21T00:11:06.337Z,9.85
2023-01-21T00:13:35.471Z,12.45
2023-01-21T00:16:03.350Z,9.20
2023-01-21T00:18:31.481Z,8.65
2023-01-21T00:20:59.239Z,9.27
2023-01-21T00:23:28.584Z,11.07
2023-01-21T00:25:59.960Z,10.27
2023-01-21T00:28:29.875Z,7.85
2023-01-21T00:30:59.083Z,7.80
2023-01-21T00:33:27.141Z,11.40
2023-01-21T00:36:01.935Z,8.65
2023-01-21T00:38:31.551Z,11.93
2023-01-21T00:41:03.062Z,13.02
2023-01-21T00:43:31.157Z,13.27
2023-01-21T00:45:59.272Z,7.63
2023-01-21T00:48:28.248Z,9.82
2023-01-21T00:50:59.078Z,9.50
2023-01-21T00:53:27.382Z,8.60
2023-01-21T00:55:59.829Z,9.15
2023-01-21T00:58:27.993Z,10.20
2023-01-21T01:01:02.496Z,10.82
2023-01-21T01:03:30.374Z,11.27
2023-01-21T01:06:02.952Z,12.73
2023-01-21T01:08:30.665Z,10.25
2023-01-21T01:11:00.053Z,11.95
2023-01-21T01:13:28.498Z,9.30
2023-01-21T01:15:57.915Z,12.48
2023-01-21T01:18:26.984Z,8.50
2023-01-21T01:20:54.951Z,8.38
2023-01-21T01:23:22.808Z,12.00
2023-01-21T01:25:56.185Z,10.15
2023-01-21T01:28:25.521Z,10.98
2023-01-21T01:30:53.410Z,7.68
2023-01-21T01:33:21.630Z,8.70
2023-01-21T01:35:50.170Z,9.00
2023-01-21T01:38:20.935Z,10.23
2023-01-21T01:40:50.323Z,10.73
2023-01-21T01:43:20.211Z,10.98
2023-01-21T01:45:50.291Z,9.63
2023-01-21T01:48:21.533Z,14.93
2023-01-21T01:50:50.289Z,13.25
2023-01-21T01:53:19.788Z,9.82
2023-01-21T01:55:49.709Z,12.05
2023-01-21T01:58:20.113Z,11.88
2023-01-21T02:00:49.581Z,9.68
2023-01-21T02:03:36.526Z,9.82
2023-01-21T02:06:04.744Z,9.38
2023-01-21T02:08:36.002Z,12.73
2023-01-21T02:11:07.330Z,9.82
2023-01-21T02:13:35.097Z,12.95
2023-01-21T02:16:19.679Z,8.95
2023-01-21T02:18:55.873Z,12.40
2023-01-21T02:22:02.946Z,10.35
2023-01-21T02:25:09.379Z,14.88
2023-01-21T02:27:56.584Z,10.48
2023-01-21T02:30:48.131Z,14.40
2023-01-21T02:33:51.215Z,11.50
2023-01-21T02:36:31.354Z,11.82
2023-01-21T02:39:07.616Z,13.35
2023-01-21T02:44:14.112Z,10.60
2023-01-21T02:46:45.900Z,12.35
2023-01-21T02:49:22.239Z,12.25
2023-01-21T02:51:50.585Z,15.60
2023-01-21T02:54:51.716Z,19.75
2023-01-21T02:57:42.446Z,9.13
2023-01-21T03:00:15.685Z,10.43
2023-01-21T03:03:26.665Z,11.95
2023-01-21T03:06:19.269Z,11.18
2023-01-21T03:08:53.959Z,10.75
2023-01-21T03:11:23.160Z,9.57
2023-01-21T03:14:12.138Z,10.25
2023-01-21T03:16:58.398Z,8.65
2023-01-21T03:19:33.289Z,11.25
2023-01-21T03:22:07.877Z,8.20
2023-01-21T03:24:37.145Z,11.00
2023-01-21T03:27:09.866Z,17.60
2023-01-21T03:29:39.956Z,15.20
2023-01-21T03:32:11.868Z,11.95
2023-01-21T03:34:44.720Z,12.40
2023-01-21T03:37:18.974Z,14.52
2023-01-21T03:39:55.903Z,14.80
2023-01-21T03:42:24.037Z,15.48
2023-01-21T03:44:51.842Z,14.18
2023-01-21T03:47:25.302Z,15.65
2023-01-21T03:49:58.032Z,18.38
2023-01-21T03:52:28.411Z,13.07
2023-01-21T03:54:56.302Z,18.98
2023-01-21T03:57:24.075Z,15.73
2023-01-21T03:59:51.905Z,11.73
2023-01-21T04:02:20.366Z,16.63
2023-01-21T04:04:48.475Z,12.73
2023-01-21T04:07:17.022Z,16.95
2023-01-21T04:09:46.691Z,12.35
2023-01-21T04:12:14.410Z,18.02
2023-01-21T04:14:42.231Z,23.60
2023-01-21T04:17:10.240Z,18.75
2023-01-21T04:19:38.023Z,22.55
2023-01-21T04:22:05.849Z,22.90
2023-01-21T04:24:34.764Z,19.95
2023-01-21T04:27:03.958Z,20.95
2023-01-21T04:29:31.635Z,22.90
2023-01-21T04:31:59.443Z,20.25
2023-01-21T04:34:27.219Z,18.30
2023-01-21T04:36:54.941Z,21.08
2023-01-21T04:39:22.718Z,18.10
2023-01-21T04:41:50.466Z,16.40
2023-01-21T04:44:19.568Z,16.77
2023-01-21T04:46:47.302Z,18.90
2023-01-21T04:49:14.993Z,18.58
2023-01-21T04:51:42.722Z,20.25
2023-01-21T04:54:11.142Z,20.02
2023-01-21T04:56:39.124Z,16.83
2023-01-21T04:59:06.871Z,17.48
2023-01-21T05:01:35.914Z,21.95
2023-01-21T05:04:03.681Z,18.27
2023-01-21T05:06:31.475Z,19.70
2023-01-21T05:08:59.306Z,16.92
2023-01-21T05:11:27.096Z,18.15
2023-01-21T05:13:54.831Z,23.25
2023-01-21T05:16:23.088Z,17.67
2023-01-21T05:18:52.281Z,18.98
2023-01-21T05:21:20.004Z,19.30
2023-01-21T05:23:47.696Z,17.23
2023-01-21T05:26:15.429Z,18.48
2023-01-21T05:28:43.118Z,16.17
2023-01-21T05:31:10.971Z,15.95
2023-01-21T05:33:38.737Z,14.57
2023-01-21T05:36:10.049Z,17.45
2023-01-21T05:38:37.885Z,17.27
2023-01-21T05:41:06.004Z,18.02
2023-01-21T05:43:33.932Z,16.45
2023-01-21T05:46:01.902Z,17.33
2023-01-21T05:48:30.162Z,14.25
2023-01-21T05:50:58.545Z,12.38
2023-01-21T05:53:27.964Z,16.70
2023-01-21T05:55:56.472Z,14.27
2023-01-21T05:58:25.605Z,14.02
2023-01-21T06:00:54.095Z,14.70
2023-01-21T06:03:22.053Z,17.83
2023-01-21T06:05:50.725Z,16.10
2023-01-21T06:08:19.135Z,13.52
2023-01-21T06:10:48.203Z,16.85
2023-01-21T06:13:17.035Z,16.27
2023-01-21T06:15:44.817Z,16.58
2023-01-21T06:18:12.657Z,14.68
2023-01-21T06:20:40.388Z,15.05
2023-01-21T06:23:08.289Z,16.58
2023-01-21T06:25:36.087Z,16.13
2023-01-21T06:28:05.207Z,12.85
2023-01-21T06:30:32.995Z,13.50
2023-01-21T06:33:00.667Z,16.95
2023-01-21T06:35:28.391Z,16.77
2023-01-21T06:37:56.128Z,17.25
2023-01-21T06:40:23.848Z,15.32
2023-01-21T06:42:51.539Z,20.00
2023-01-21T06:45:20.832Z,19.02
2023-01-21T06:47:48.567Z,18.40
2023-01-21T06:50:18.348Z,20.88
2023-01-21T06:52:47.975Z,23.13
2023-01-21T06:55:16.719Z,22.02
2023-01-21T06:57:45.400Z,17.27
2023-01-21T07:00:14.441Z,20.08
2023-01-21T07:02:43.520Z,20.98
2023-01-21T07:05:11.391Z,21.42
2023-01-21T07:07:39.076Z,24.65
2023-01-21T07:10:08.977Z,20.25
2023-01-21T07:12:36.755Z,22.45
2023-01-21T07:15:05.366Z,27.50
2023-01-21T07:17:33.139Z,25.50
2023-01-21T07:20:02.331Z,27.52
2023-01-21T07:22:30.034Z,20.40
2023-01-21T07:24:57.751Z,21.10
2023-01-21T07:27:25.560Z,20.13
2023-01-21T07:29:53.469Z,20.48
2023-01-21T07:32:21.206Z,19.80
2023-01-21T07:34:49.016Z,22.05
2023-01-21T07:37:18.052Z,18.27
2023-01-21T07:39:45.791Z,21.40
2023-01-21T07:42:13.489Z,21.30
2023-01-21T07:44:41.202Z,21.85
2023-01-21T07:47:10.345Z,24.33
2023-01-21T07:49:38.276Z,28.38
2023-01-21T07:52:05.987Z,22.92
2023-01-21T07:54:35.023Z,26.33
2023-01-21T07:57:02.903Z,26.58
2023-01-21T07:59:30.606Z,26.48
2023-01-21T08:01:58.520Z,26.13
2023-01-21T08:04:26.513Z,23.70
2023-01-21T08:06:56.898Z,24.85
2023-01-21T08:09:24.990Z,24.52
2023-01-21T08:11:54.066Z,26.65
2023-01-21T08:14:21.744Z,29.23
2023-01-21T08:16:49.442Z,24.05
2023-01-21T08:19:17.162Z,24.02
2023-01-21T08:21:45.160Z,26.63
2023-01-21T08:24:13.122Z,29.23
2023-01-21T08:26:40.875Z,29.13
2023-01-21T08:29:10.193Z,23.98
2023-01-21T08:31:38.003Z,26.40
2023-01-21T08:34:05.760Z,24.60
2023-01-21T08:36:33.506Z,30.75
2023-01-21T08:39:01.816Z,26.05
2023-01-21T08:41:29.550Z,36.50
2023-01-21T08:43:57.261Z,26.17
2023-01-21T08:46:26.507Z,30.23
2023-01-21T08:48:54.201Z,25.45
2023-01-21T08:51:22.013Z,24.00
2023-01-21T08:53:50.629Z,25.73
2023-01-21T08:56:19.108Z,24.90
2023-01-21T08:58:46.807Z,20.88
2023-01-21T09:01:17.408Z,18.08
2023-01-21T09:03:48.817Z,20.88
2023-01-21T09:06:17.303Z,20.83
2023-01-21T09:08:46.987Z,25.00
2023-01-21T09:11:17.154Z,20.65
2023-01-21T09:13:47.012Z,22.98
2023-01-21T09:16:18.819Z,23.02
2023-01-21T09:18:50.254Z,24.25
2023-01-21T09:21:21.137Z,25.55
2023-01-21T09:23:50.665Z,22.70
2023-01-21T09:26:21.160Z,27.88
2023-01-21T09:28:55.417Z,28.67
2023-01-21T09:31:26.229Z,24.52
2023-01-21T09:34:00.245Z,26.13
2023-01-21T09:36:31.356Z,28.83
2023-01-21T09:39:02.260Z,26.05
2023-01-21T09:41:37.233Z,28.02
2023-01-21T09:44:17.704Z,31.08
2023-01-21T09:46:52.443Z,32.17
2023-01-21T09:49:27.459Z,29.13
2023-01-21T09:52:08.431Z,26.65
2023-01-21T09:54:40.817Z,25.20
2023-01-21T09:57:42.440Z,31.25
2023-01-21T10:00:30.580Z,35.50
2023-01-21T10:03:04.400Z,33.03
2023-01-21T10:05:52.900Z,32.50
2023-01-21T10:08:31.520Z,28.17
2023-01-21T10:11:13.765Z,25.35
2023-01-21T10:13:52.732Z,31.38
2023-01-21T10:16:28.596Z,31.15
2023-01-21T10:18:58.042Z,32.85
2023-01-21T10:21:33.825Z,32.55
2023-01-21T10:24:05.539Z,35.80
2023-01-21T10:26:35.750Z,30.33
2023-01-21T10:29:04.094Z,29.27
2023-01-21T10:31:38.909Z,32.33
2023-01-21T10:34:12.921Z,28.95
2023-01-21T10:37:03.626Z,30.77
2023-01-21T10:39:40.491Z,28.63
2023-01-21T10:42:34.199Z,34.33
2023-01-21T10:45:08.141Z,32.92
2023-01-21T10:47:43.074Z,29.80
2023-01-21T10:50:25.589Z,29.92
2023-01-21T10:53:00.434Z,29.40
2023-01-21T10:55:39.649Z,27.48
2023-01-21T10:58:15.955Z,29.65
2023-01-21T11:03:17.732Z,28.23
2023-01-21T11:05:47.533Z,27.70
2023-01-21T11:08:22.102Z,27.92
2023-01-21T11:10:55.082Z,29.58
2023-01-21T11:13:23.299Z,32.15
2023-01-21T11:15:53.814Z,31.55
2023-01-21T11:18:31.149Z,30.45
2023-01-21T11:21:00.686Z,27.80
2023-01-21T11:23:31.514Z,27.05
2023-01-21T11:26:03.546Z,25.38
2023-01-21T11:28:31.757Z,29.92
2023-01-21T11:31:07.950Z,25.08
2023-01-21T11:36:16.017Z,23.83
2023-01-21T11:38:47.169Z,23.25
2023-01-21T11:41:21.788Z,21.55
2023-01-21T11:43:52.125Z,24.33
2023-01-21T11:46:30.009Z,27.35
2023-01-21T11:49:18.525Z,23.63
2023-01-21T11:51:47.342Z,21.55
2023-01-21T11:54:18.928Z,21.60
2023-01-21T11:56:58.012Z,21.88
2023-01-21T11:59:32.890Z,21.65
2023-01-21T12:02:08.980Z,24.02
2023-01-21T12:04:37.385Z,26.40
2023-01-21T12:07:06.342Z,22.77
2023-01-21T12:09:35.530Z,27.15
2023-01-21T12:12:19.395Z,24.02
2023-01-21T12:14:53.329Z,27.42
2023-01-21T12:17:34.912Z,23.85
2023-01-21T12:20:17.401Z,28.20
2023-01-21T12:23:13.523Z,23.55
2023-01-21T12:25:49.197Z,27.92
2023-01-21T12:28:41.771Z,27.40
2023-01-21T12:31:23.533Z,27.25
2023-01-21T12:33:56.123Z,27.65
2023-01-21T12:36:30.471Z,24.77
2023-01-21T12:39:14.073Z,30.70
2023-01-21T12:41:47.898Z,29.08
2023-01-21T12:44:27.970Z,40.78
2023-01-21T12:46:59.724Z,34.63
2023-01-21T12:49:30.389Z,28.30
2023-01-21T12:52:04.200Z,31.38
2023-01-21T12:54:40.991Z,34.20
2023-01-21T12:57:19.114Z,28.70
2023-01-21T12:59:49.924Z,24.45
2023-01-21T13:02:25.433Z,32.17
2023-01-21T13:04:57.508Z,26.50
2023-01-21T13:07:32.885Z,23.98
2023-01-21T13:10:05.434Z,29.73
2023-01-21T13:12:36.250Z,24.38
2023-01-21T13:15:13.590Z,24.58
2023-01-21T13:17:44.900Z,21.75
2023-01-21T13:20:17.427Z,25.02
2023-01-21T13:22:53.208Z,27.83
2023-01-21T13:25:29.351Z,24.20
2023-01-21T13:28:06.459Z,23.52
2023-01-21T13:30:42.121Z,22.73
2023-01-21T13:33:25.724Z,22.92
2023-01-21T13:36:05.686Z,23.67
2023-01-21T13:38:40.473Z,21.15
2023-01-21T13:41:24.980Z,21.90
2023-01-21T13:44:11.745Z,21.08
2023-01-21T13:46:52.715Z,23.73
2023-01-21T13:49:48.928Z,19.90
2023-01-21T13:52:22.404Z,25.02
2023-01-21T13:55:20.880Z,21.75
2023-01-21T13:58:02.831Z,27.45
2023-01-21T14:00:36.453Z,17.67
2023-01-21T14:03:15.898Z,18.92
2023-01-21T14:05:51.675Z,16.73
2023-01-21T14:08:27.183Z,29.55
2023-01-21T14:10:59.688Z,17.30
2023-01-21T14:13:51.964Z,23.95
2023-01-21T14:16:43.072Z,17.92
2023-01-21T14:19:29.504Z,18.20
2023-01-21T14:22:12.283Z,14.55
2023-01-21T14:25:03.825Z,17.05
2023-01-21T14:27:41.504Z,20.05
2023-01-21T14:30:15.261Z,24.73
2023-01-21T14:32:48.295Z,22.98
2023-01-21T14:35:23.573Z,20.90
2023-01-21T14:37:57.895Z,20.80
2023-01-21T14:40:29.933Z,16.88
2023-01-21T14:42:57.759Z,18.48
2023-01-21T14:45:52.841Z,19.65
2023-01-21T14:48:33.085Z,17.40
2023-01-21T14:51:22.451Z,18.20
2023-01-21T14:53:52.320Z,19.00
2023-01-21T14:56:24.210Z,22.75
2023-01-21T14:58:54.661Z,17.40
2023-01-21T15:01:27.647Z,19.23
2023-01-21T15:03:57.814Z,13.88
2023-01-21T15:06:26.814Z,18.05
2023-01-21T15:08:58.401Z,19.95
2023-01-21T15:11:31.575Z,19.02
2023-01-21T15:14:07.378Z,18.92
2023-01-21T15:16:37.473Z,20.33
2023-01-21T15:19:32.007Z,18.35
2023-01-21T15:22:23.108Z,16.10
2023-01-21T15:25:20.811Z,17.98
2023-01-21T15:28:38.058Z,16.33
2023-01-21T15:31:09.144Z,19.48
2023-01-21T15:33:41.438Z,17.60
2023-01-21T15:36:21.303Z,19.48
2023-01-21T15:38:51.002Z,16.00
2023-01-21T15:41:28.117Z,19.10
2023-01-21T15:44:13.444Z,19.23
2023-01-21T15:46:51.583Z,21.50
2023-01-21T15:49:37.042Z,17.05
2023-01-21T15:52:18.685Z,18.77
2023-01-21T15:54:53.877Z,22.50
2023-01-21T15:57:38.237Z,20.17
2023-01-21T16:00:22.802Z,16.85
2023-01-21T16:02:56.092Z,18.55
2023-01-21T16:05:32.379Z,20.63
2023-01-21T16:10:41.615Z,16.90
2023-01-21T16:13:16.833Z,17.70
2023-01-21T16:15:58.039Z,17.00
2023-01-21T16:18:32.614Z,17.92
2023-01-21T16:21:02.757Z,15.90
2023-01-21T16:23:35.559Z,19.90
2023-01-21T16:26:03.803Z,19.60
2023-01-21T16:28:43.120Z,22.08
2023-01-21T16:31:11.158Z,21.35
2023-01-21T16:33:39.000Z,18.58
2023-01-21T16:36:08.783Z,23.33
2023-01-21T16:38:38.643Z,22.08
2023-01-21T16:41:25.435Z,17.50
2023-01-21T16:43:56.359Z,19.67
2023-01-21T16:46:27.740Z,16.23
2023-01-21T16:48:58.262Z,16.80
2023-01-21T16:51:30.106Z,18.92
2023-01-21T16:54:22.009Z,24.85
2023-01-21T16:56:53.299Z,20.23
2023-01-21T16:59:21.795Z,16.70
2023-01-21T17:01:51.023Z,17.90
2023-01-21T17:04:18.806Z,19.77
2023-01-21T17:06:47.221Z,19.63
2023-01-21T17:09:27.786Z,19.50
2023-01-21T17:11:57.655Z,18.38
2023-01-21T17:14:29.141Z,19.33
2023-01-21T17:16:59.665Z,20.95
2023-01-21T17:19:33.791Z,19.98
2023-01-21T17:22:04.790Z,23.42
2023-01-21T17:24:39.440Z,18.10
2023-01-21T17:27:10.704Z,21.30
2023-01-21T17:29:40.324Z,20.23
2023-01-21T17:32:25.638Z,19.40
2023-01-21T17:35:10.816Z,20.00
2023-01-21T17:37:52.084Z,19.48
2023-01-21T17:40:32.546Z,19.13
2023-01-21T17:43:02.572Z,21.17
2023-01-21T17:45:34.844Z,17.60
2023-01-21T17:48:14.328Z,19.20
2023-01-21T17:50:47.511Z,26.23
2023-01-21T17:53:22.619Z,20.92
2023-01-21T17:56:00.528Z,20.55
2023-01-21T17:58:46.771Z,22.35
2023-01-21T18:01:15.666Z,25.30
2023-01-21T18:03:43.474Z,23.38
2023-01-21T18:06:18.274Z,20.60
2023-01-21T18:08:46.098Z,19.65
2023-01-21T18:11:17.165Z,17.38
2023-01-21T18:13:45.098Z,18.83
2023-01-21T18:16:13.032Z,25.83
2023-01-21T18:18:41.910Z,21.48
2023-01-21T18:21:18.208Z,19.33
2023-01-21T18:26:21.028Z,23.17
2023-01-21T18:28:48.735Z,19.98
2023-01-21T18:31:16.552Z,20.13
2023-01-21T18:33:44.464Z,18.85
2023-01-21T18:36:12.705Z,16.27
2023-01-21T18:38:40.512Z,20.75
2023-01-21T18:41:11.020Z,20.20
2023-01-21T18:43:40.130Z,15.95
2023-01-21T18:46:12.465Z,24.17
2023-01-21T18:48:40.402Z,23.50
2023-01-21T18:51:08.990Z,19.30
2023-01-21T18:53:36.875Z,22.40
2023-01-21T18:56:06.665Z,16.65
2023-01-21T18:58:34.376Z,21.23
2023-01-21T19:01:13.904Z,21.33
2023-01-21T19:03:48.725Z,21.25
2023-01-21T19:06:17.359Z,20.83
2023-01-21T19:08:48.542Z,23.70
2023-01-21T19:11:16.674Z,24.30
2023-01-21T19:13:44.480Z,22.73
2023-01-21T19:16:17.302Z,23.45
2023-01-21T19:18:45.685Z,21.92
2023-01-21T19:21:13.486Z,29.48
2023-01-21T19:23:41.327Z,27.73
2023-01-21T19:26:13.586Z,29.17
2023-01-21T19:28:41.361Z,26.65
2023-01-21T19:31:09.189Z,27.05
2023-01-21T19:33:39.703Z,28.42
2023-01-21T19:36:15.005Z,29.02
2023-01-21T19:38:44.154Z,38.57
2023-01-21T19:41:12.043Z,28.40
2023-01-21T19:43:41.154Z,29.38
2023-01-21T19:46:11.794Z,26.25
2023-01-21T19:48:41.584Z,21.77
2023-01-21T19:51:09.640Z,24.30
2023-01-21T19:53:37.458Z,22.27
2023-01-21T19:56:06.655Z,20.35
2023-01-21T19:58:35.672Z,20.95
2023-01-21T20:01:03.549Z,19.77
2023-01-21T20:03:31.282Z,19.42
2023-01-21T20:06:02.999Z,18.35
2023-01-21T20:08:32.415Z,19.80
2023-01-21T20:11:00.293Z,22.67
2023-01-21T20:13:31.307Z,20.27
2023-01-21T20:16:03.642Z,24.45
2023-01-21T20:18:33.209Z,22.13
2023-01-21T20:21:02.427Z,20.65
2023-01-21T20:23:32.474Z,17.10
2023-01-21T20:26:00.953Z,19.65
2023-01-21T20:28:39.684Z,17.90
2023-01-21T20:31:08.601Z,19.25
2023-01-21T20:33:36.933Z,17.85
2023-01-21T20:36:08.552Z,21.00
2023-01-21T20:38:38.295Z,18.73
2023-01-21T20:41:07.211Z,17.30
2023-01-21T20:43:35.237Z,20.63
2023-01-21T20:46:06.306Z,25.13
2023-01-21T20:48:37.147Z,19.67
2023-01-21T20:51:07.252Z,28.35
2023-01-21T20:53:35.262Z,27.27
2023-01-21T20:56:14.932Z,23.58
2023-01-21T20:58:44.837Z,16.15
2023-01-21T21:01:13.274Z,18.50
2023-01-21T21:03:41.141Z,22.23
2023-01-21T21:06:14.722Z,20.73
2023-01-21T21:08:42.598Z,17.05
2023-01-21T21:11:11.244Z,19.30
2023-01-21T21:13:39.085Z,21.65
2023-01-21T21:16:19.663Z,18.65
2023-01-21T21:18:48.327Z,21.95
2023-01-21T21:21:19.399Z,20.17
2023-01-21T21:23:48.338Z,23.23
2023-01-21T21:26:18.799Z,20.52
2023-01-21T21:28:47.499Z,23.67
2023-01-21T21:31:17.590Z,20.45
2023-01-21T21:33:45.753Z,21.50
2023-01-21T21:36:15.621Z,28.48
2023-01-21T21:38:45.767Z,22.58
2023-01-21T21:41:35.077Z,24.27
2023-01-21T21:44:03.202Z,19.52
2023-01-21T21:46:48.693Z,27.35
2023-01-21T21:49:16.676Z,27.20
2023-01-21T21:51:45.818Z,25.23
2023-01-21T21:54:18.232Z,23.45
2023-01-21T21:56:46.251Z,24.35
2023-01-21T21:59:14.610Z,23.83
2023-01-21T22:01:43.803Z,25.65
2023-01-21T22:04:11.870Z,23.50
2023-01-21T22:06:39.953Z,32.65
2023-01-21T22:09:08.270Z,24.58
2023-01-21T22:11:37.462Z,27.02
2023-01-21T22:14:05.404Z,21.83
2023-01-21T22:16:33.531Z,30.35
2023-01-21T22:19:02.211Z,25.90
2023-01-21T22:21:32.956Z,27.17
2023-01-21T22:24:01.329Z,28.85
2023-01-21T22:26:29.795Z,26.92
2023-01-21T22:28:59.259Z,21.38
2023-01-21T22:31:28.882Z,25.05
2023-01-21T22:33:57.570Z,24.60
2023-01-21T22:36:27.208Z,24.25
2023-01-21T22:38:55.511Z,25.52
2023-01-21T22:41:24.516Z,28.25
2023-01-21T22:43:53.171Z,29.02
2023-01-21T22:46:23.890Z,22.17
2023-01-21T22:48:52.121Z,25.05
2023-01-21T22:51:21.218Z,21.23
2023-01-21T22:53:49.783Z,25.52
2023-01-21T22:56:19.545Z,24.38
2023-01-21T22:58:47.614Z,28.88
2023-01-21T23:01:24.669Z,23.50
2023-01-21T23:03:52.863Z,23.20
2023-01-21T23:06:21.031Z,25.45
2023-01-21T23:08:49.236Z,22.52
2023-01-21T23:11:19.081Z,21.50
2023-01-21T23:13:47.812Z,21.20
2023-01-21T23:16:18.303Z,20.55
2023-01-21T23:18:47.480Z,21.38
2023-01-21T23:21:17.847Z,19.55
2023-01-21T23:23:45.888Z,21.58
2023-01-21T23:26:14.985Z,18.67
2023-01-21T23:28:42.973Z,20.33
2023-01-21T23:31:13.740Z,19.42
2023-01-21T23:33:42.229Z,23.02
2023-01-21T23:36:13.371Z,19.67
2023-01-21T23:38:42.137Z,18.35
2023-01-21T23:41:12.061Z,19.40
2023-01-21T23:43:39.919Z,23.02
2023-01-21T23:46:08.449Z,21.42
2023-01-21T23:48:36.256Z,21.98
2023-01-21T23:51:04.782Z,20.05
2023-01-21T23:53:34.565Z,19.75
2023-01-21T23:56:07.114Z,19.23
2023-01-21T23:58:35.023Z,21.90
